Dades meteomassalio
Diari Summary for Gener 16, 2018 Units:  English    Metric   Both
« Previous Day
Next Day »
Diari Semanal Mensual Anual Personalitzat
  Maxima: Minima: Mijana:
Temperatura: TemperatureC °F -0.6 °F 8.1 °F
Rosada: DewpointC °F -6.6 °F 2.4 °F
Humitat: Humidity % 55 % 67 %
Velocitat del vent: WindSpeedKMH mph 0.0 mph 18.2 mph
Racha vent: WindSpeedGustKMH mph - -
Vent:- - NW
Pressio: PressurehPa in 1024.9 in -
Pluja: 0.0 in    
Historical Graphs
 
 
Tabular Data for Gener 16, 2018
Time Temperature Dew Point Pressure Wind Wind Speed Wind Gust Humidity Rainfall Rate (Hourly) solar Conditions
TemperatureC °F DewpointC °F PressurehPa in Calm     Humidity % HourlyPrecipMM in SolarRadiationWatts/m^2 W/m2 Conditions
00:00 1.1 °F -0.7 °F 1028.7 in NNW 1.9 mph 1.9 mph 88 % 0.0 in 0.0 W/m2 CLR
00:17 1.1 °F -0.8 °F 1028.7 in Calm     87 % 0.0 in 0.0 W/m2 CLR
00:23 1.1 °F -0.7 °F 1028.7 in Calm     88 % 0.0 in 0.0 W/m2 CLR
00:42 0.6 °F -1.2 °F 1028.3 in WNW 1.9 mph   88 % 0.0 in 0.0 W/m2 CLR
00:59 0.6 °F -2.3 °F 1028.3 in Calm     81 % 0.0 in 0.0 W/m2 CLR
01:07 0.6 °F -2.7 °F 1028.3 in Calm     79 % 0.0 in 0.0 W/m2 CLR
01:13 0.0 °F -3.2 °F 1028.0 in West 5.6 mph 5.6 mph 79 % 0.0 in 0.0 W/m2 CLR
01:32 0.0 °F -3.4 °F 1027.7 in West 1.9 mph   78 % 0.0 in 0.0 W/m2 CLR
01:41 0.0 °F -3.6 °F 1027.7 in Calm     77 % 0.0 in 0.0 W/m2 CLR
01:46 0.0 °F -3.7 °F 1027.7 in Calm     76 % 0.0 in 0.0 W/m2 CLR
02:23 1.1 °F -4.2 °F 1027.7 in NW 5.6 mph 5.6 mph 68 % 0.0 in 0.0 W/m2 CLR
02:51 0.6 °F -5.9 °F 1027.3 in WNW 5.6 mph 5.6 mph 62 % 0.0 in 0.0 W/m2 CLR
03:08 0.6 °F -5.5 °F 1027.3 in Calm     64 % 0.0 in 0.0 W/m2 CLR
03:14 0.6 °F -5.3 °F 1027.3 in WNW 5.6 mph 5.6 mph 65 % 0.0 in 0.0 W/m2 CLR
03:33 0.0 °F -6.0 °F 1027.0 in WNW 3.7 mph 3.7 mph 64 % 0.0 in 0.0 W/m2 CLR
03:44 0.0 °F -5.8 °F 1027.0 in Calm     65 % 0.0 in 0.0 W/m2 CLR
04:18 -0.6 °F -6.6 °F 1027.0 in Calm     64 % 0.0 in 0.0 W/m2 CLR
04:48 1.1 °F -4.9 °F 1027.0 in Calm     64 % 0.0 in 0.0 W/m2 CLR
04:56 1.1 °F -4.7 °F 1026.6 in Calm     65 % 0.0 in 0.0 W/m2 CLR
05:17 0.0 °F -5.4 °F 1026.3 in WNW 1.9 mph 1.9 mph 67 % 0.0 in 0.0 W/m2 CLR
05:38 0.0 °F -5.2 °F 1026.6 in Calm     68 % 0.0 in 0.0 W/m2 CLR
06:01 0.0 °F -4.8 °F 1026.6 in NW 5.6 mph 5.6 mph 70 % 0.0 in 0.0 W/m2 CLR
06:11 0.0 °F -5.0 °F 1026.6 in NW 5.6 mph 5.6 mph 69 % 0.0 in 0.0 W/m2 CLR
06:18 0.0 °F -5.0 °F 1026.6 in NW 6.4 mph 6.4 mph 69 % 0.0 in 0.0 W/m2 CLR
06:34 0.0 °F -5.2 °F 1026.6 in WNW 16.7 mph 16.7 mph 68 % 0.0 in 0.0 W/m2 CLR
06:47 0.6 °F -4.9 °F 1026.6 in NW 20.4 mph 20.4 mph 67 % 0.0 in 0.0 W/m2 CLR
06:53 1.1 °F -4.3 °F 1026.6 in WNW 18.5 mph 18.5 mph 67 % 0.0 in 0.0 W/m2 CLR
06:59 1.1 °F -4.3 °F 1026.6 in NW 18.5 mph 18.5 mph 67 % 0.0 in 0.0 W/m2 CLR
07:06 1.1 °F -4.3 °F 1026.6 in WNW 20.4 mph 20.4 mph 67 % 0.0 in 0.0 W/m2 CLR
07:23 2.2 °F -3.3 °F 1026.6 in WNW 24.1 mph 24.1 mph 67 % 0.0 in 0.0 W/m2 CLR
07:30 2.8 °F -2.7 °F 1026.6 in NW 20.4 mph 20.4 mph 67 % 0.0 in 0.0 W/m2 CLR
07:40 5.6 °F -0.1 °F 1026.6 in WNW 18.5 mph 18.5 mph 67 % 0.0 in 0.0 W/m2 CLR
07:46 5.0 °F -0.6 °F 1026.6 in NW 25.9 mph 25.9 mph 67 % 0.0 in 0.0 W/m2 CLR
07:59 3.3 °F -2.2 °F 1026.6 in NW 18.5 mph 18.5 mph 67 % 0.0 in 0.0 W/m2 CLR
08:26 1.7 °F -3.8 °F 1027.3 in NW 18.5 mph 18.5 mph 67 % 0.0 in 5.0 W/m2 OVC
08:40 1.1 °F -3.9 °F 1027.3 in NW 3.2 mph 3.2 mph 69 % 0.0 in 11.0 W/m2 BKN
08:47 1.1 °F -3.8 °F 1027.3 in NNW 14.8 mph 14.8 mph 70 % 0.0 in 14.0 W/m2 BKN
09:23 8.3 °F 2.8 °F 1027.7 in NW 27.8 mph 27.8 mph 68 % 0.0 in 83.0 W/m2 FEW
09:39 8.9 °F 3.3 °F 1028.0 in WNW 31.5 mph 31.5 mph 68 % 0.0 in 102.0 W/m2 CLR
10:07 10.0 °F 4.6 °F 1028.3 in NW 27.8 mph 27.8 mph 69 % 0.0 in 132.0 W/m2 CLR
10:37 11.1 °F 5.2 °F 1028.7 in NW 20.9 mph 20.9 mph 67 % 0.0 in 287.0 W/m2 CLR
10:44 11.1 °F 5.2 °F 1028.7 in NW 22.5 mph 22.5 mph 67 % 0.0 in 301.0 W/m2 CLR
10:52 11.7 °F 5.5 °F 1028.7 in WNW 25.9 mph 25.9 mph 66 % 0.0 in 316.0 W/m2 CLR
11:50 13.3 °F 6.7 °F 1028.7 in NW 25.9 mph 25.9 mph 64 % 0.0 in 411.0 W/m2 CLR
12:07 13.9 °F 7.2 °F 1028.3 in NNW 25.9 mph 25.9 mph 64 % 0.0 in 431.0 W/m2 CLR
12:13 13.9 °F 6.9 °F 1028.3 in NNW 25.7 mph 25.7 mph 63 % 0.0 in 436.0 W/m2 CLR
12:26 13.9 °F 7.2 °F 1028.0 in NW 31.5 mph 31.5 mph 64 % 0.0 in 446.0 W/m2 CLR
12:32 13.9 °F 7.2 °F 1028.0 in NW 29.6 mph 29.6 mph 64 % 0.0 in 450.0 W/m2 CLR
12:38 14.4 °F 7.5 °F 1027.7 in NW 20.4 mph 20.4 mph 63 % 0.0 in 457.0 W/m2 CLR
12:54 15.0 °F 8.0 °F 1027.7 in NNW 24.1 mph 24.1 mph 63 % 0.0 in 459.0 W/m2 CLR
13:00 15.0 °F 7.8 °F 1027.3 in NW 29.6 mph 29.6 mph 62 % 0.0 in 461.0 W/m2 CLR
13:11 15.6 °F 7.8 °F 1027.3 in NW 37.0 mph 37.0 mph 60 % 0.0 in 462.0 W/m2 CLR
13:26 15.6 °F 7.8 °F 1026.6 in NW 24.1 mph 24.1 mph 60 % 0.0 in 464.0 W/m2 CLR
13:37 16.1 °F 8.1 °F 1026.3 in NW 24.1 mph 24.1 mph 59 % 0.0 in 464.0 W/m2 CLR
13:55 16.7 °F 7.8 °F 1026.0 in NW 35.2 mph 35.2 mph 56 % 0.0 in 473.0 W/m2 CLR
14:23 17.2 °F 8.4 °F 1026.0 in NNW 37.0 mph 37.0 mph 56 % 0.0 in 438.0 W/m2 CLR
14:44 17.2 °F 8.1 °F 1025.6 in NNW 38.9 mph 38.9 mph 55 % 0.0 in 408.0 W/m2 CLR
14:50 17.2 °F 8.4 °F 1025.3 in NW 31.5 mph 31.5 mph 56 % 0.0 in 394.0 W/m2 CLR
14:56 17.2 °F 8.1 °F 1025.3 in North 38.9 mph 38.9 mph 55 % 0.0 in 388.0 W/m2 CLR
15:01 17.2 °F 8.4 °F 1025.3 in NNW 29.0 mph 29.0 mph 56 % 0.0 in 374.0 W/m2 CLR
15:44 16.7 °F 8.1 °F 1024.9 in NW 38.9 mph 38.9 mph 57 % 0.0 in 292.0 W/m2 CLR
15:50 16.7 °F 8.1 °F 1024.9 in NNW 29.6 mph 29.6 mph 57 % 0.0 in 278.0 W/m2 CLR
15:56 16.7 °F 8.1 °F 1024.9 in NW 27.8 mph 27.8 mph 57 % 0.0 in 265.0 W/m2 CLR
16:14 16.1 °F 7.8 °F 1024.9 in NNW 33.3 mph 33.3 mph 58 % 0.0 in 218.0 W/m2 CLR
16:43 15.6 °F 7.6 °F 1024.9 in NNW 38.9 mph 38.9 mph 59 % 0.0 in 128.0 W/m2 CLR
16:59 15.0 °F 7.6 °F 1024.9 in NW 29.6 mph 29.6 mph 61 % 0.0 in 86.0 W/m2 CLR
17:05 15.0 °F 7.6 °F 1024.9 in NNW 24.1 mph 24.1 mph 61 % 0.0 in 62.0 W/m2 SCT
17:21 14.4 °F 7.2 °F 1025.3 in NNW 32.2 mph 32.2 mph 62 % 0.0 in 32.0 W/m2 BKN
17:27 14.4 °F 7.2 °F 1025.3 in NNW 37.0 mph 37.0 mph 62 % 0.0 in 21.0 W/m2 BKN
17:43 13.9 °F 7.4 °F 1025.3 in NW 24.1 mph 24.1 mph 65 % 0.0 in 11.0 W/m2 BKN
17:50 13.9 °F 7.4 °F 1025.3 in NW 27.8 mph 27.8 mph 65 % 0.0 in 7.0 W/m2 BKN
17:58 13.3 °F 7.1 °F 1025.3 in NW 22.2 mph 22.2 mph 66 % 0.0 in 5.0 W/m2 OVC
18:07 13.3 °F 7.3 °F 1025.3 in NW 16.7 mph 16.7 mph 67 % 0.0 in 0.0 W/m2 CLR
18:49 12.8 °F 7.0 °F 1024.9 in WNW 25.7 mph 25.7 mph 68 % 0.0 in 0.0 W/m2 CLR
19:05 12.2 °F 6.7 °F 1024.9 in NW 27.8 mph 27.8 mph 69 % 0.0 in 0.0 W/m2 CLR
19:55 10.6 °F 6.1 °F 1024.9 in West 18.5 mph 18.5 mph 74 % 0.0 in 0.0 W/m2 CLR
20:09 10.6 °F 6.1 °F 1024.9 in NW 11.1 mph 11.1 mph 74 % 0.0 in 0.0 W/m2 CLR
20:22 10.6 °F 6.1 °F 1025.3 in WNW 14.8 mph 14.8 mph 74 % 0.0 in 0.0 W/m2 CLR
20:29 10.0 °F 5.8 °F 1025.3 in WNW 1.9 mph 1.9 mph 75 % 0.0 in 0.0 W/m2 CLR
21:20 10.0 °F 5.6 °F 1025.6 in NW 20.4 mph 20.4 mph 74 % 0.0 in 0.0 W/m2 CLR
21:27 10.0 °F 5.6 °F 1025.6 in NNW 16.7 mph 16.7 mph 74 % 0.0 in 0.0 W/m2 CLR
21:40 11.1 °F 6.8 °F 1025.6 in NNW 25.9 mph 25.9 mph 75 % 0.0 in 0.0 W/m2 CLR
21:58 11.1 °F 6.7 °F 1025.6 in NNW 22.2 mph 22.2 mph 74 % 0.0 in 0.0 W/m2 CLR
22:46 11.7 °F 7.2 °F 1025.3 in NW 20.4 mph 20.4 mph 74 % 0.0 in 0.0 W/m2 CLR
23:02 11.1 °F 6.7 °F 1025.3 in NW 18.5 mph 18.5 mph 74 % 0.0 in 0.0 W/m2 CLR
23:15 11.1 °F 6.7 °F 1024.9 in WNW 18.5 mph 18.5 mph 74 % 0.0 in 0.0 W/m2 CLR
23:32 10.6 °F 6.1 °F 1024.9 in WNW 20.4 mph 20.4 mph 74 % 0.0 in 0.0 W/m2 CLR
23:39 10.6 °F 6.1 °F 1024.9 in NW 20.4 mph 20.4 mph 74 % 0.0 in 0.0 W/m2 CLR
23:58 10.6 °F 6.1 °F 1024.9 in NW 18.5 mph 18.5 mph 74 % 0.0 in 0.0 W/m2 CLR
Lo Temps de Massalio
Compliments of Weather Underground - 512 kb